Time;durP1;ratioP1;P1;durP2;ratioP2;P2;SDS_P1;SDS_P2;PMS_P1;PMS_P2;Temp;Humidity;BMP_temperature;BMP_pressure;BME280_temperature;BME280_humidity;BME280_pressure;Samples;Min_cycle;Max_cycle;Signal;HPM_P1;HPM_P2
2022/09/16 00:00:21;108165.00;0.36;187.66;0.00;0.00;0.62;;;;;19.50;1.00;;;;;;2261217;61;1371;-81
2022/09/16 00:02:51;174016.00;0.58;301.18;0.00;0.00;0.62;;;;;19.40;1.00;;;;;;2261416;61;1123;-81
2022/09/16 00:05:19;371996.00;1.24;641.67;9400.00;0.03;16.91;;;;;19.30;1.00;;;;;;2262190;61;1116;-81
2022/09/16 00:07:45;350726.00;1.17;605.11;0.00;0.00;0.62;;;;;19.40;1.00;;;;;;2261629;61;1224;-81
2022/09/16 00:10:13;280355.00;0.93;484.15;0.00;0.00;0.62;;;;;19.60;1.00;;;;;;2261884;61;2026;-82
2022/09/16 00:12:41;176362.00;0.59;305.22;0.00;0.00;0.62;;;;;19.80;1.00;;;;;;2261717;61;1090;-82
2022/09/16 00:15:10;184152.00;0.61;318.64;0.00;0.00;0.62;;;;;20.00;1.00;;;;;;2261451;61;1170;-82
2022/09/16 00:17:37;86298.00;0.29;149.91;0.00;0.00;0.62;;;;;20.10;1.00;;;;;;2259055;61;1138;-81
2022/09/16 00:20:06;68046.00;0.23;118.38;0.00;0.00;0.62;;;;;20.20;1.00;;;;;;2258244;61;1235;-82
2022/09/16 00:22:33;91690.00;0.31;159.23;0.00;0.00;0.62;;;;;19.90;1.00;;;;;;2265559;61;1414;-82
2022/09/16 00:25:00;140002.00;0.47;242.57;0.00;0.00;0.62;;;;;19.80;1.00;;;;;;2261737;61;1103;-82
2022/09/16 00:27:27;279099.00;0.93;481.99;0.00;0.00;0.62;;;;;19.70;1.00;;;;;;2261673;61;1235;-82
2022/09/16 00:29:55;91665.00;0.31;159.18;0.00;0.00;0.62;;;;;19.80;1.00;;;;;;2261407;61;1282;-82
2022/09/16 00:32:22;94504.00;0.32;164.08;0.00;0.00;0.62;;;;;19.90;1.00;;;;;;2261283;61;2034;-82
2022/09/16 00:34:49;186610.00;0.62;322.87;0.00;0.00;0.62;;;;;20.00;1.00;;;;;;2261012;61;1092;-81
2022/09/16 00:37:16;103394.00;0.34;179.43;0.00;0.00;0.62;;;;;20.10;1.00;;;;;;2261508;61;1104;-81
2022/09/16 00:39:43;176161.00;0.59;304.88;0.00;0.00;0.62;;;;;20.20;1.00;;;;;;2261545;61;1126;-81
2022/09/16 00:42:11;37631.00;0.13;65.79;0.00;0.00;0.62;;;;;20.30;1.00;;;;;;2261207;61;1399;-81
2022/09/16 00:45:03;259589.00;0.87;448.44;63028.00;0.21;109.71;;;;;20.10;1.00;;;;;;2261424;61;1080;-81
2022/09/16 00:47:35;0.00;0.00;0.62;0.00;0.00;0.62;;;;;20.10;1.00;;;;;;2262001;61;1118;-81
2022/09/16 00:50:06;31980.00;0.11;56.01;0.00;0.00;0.62;;;;;20.00;1.00;;;;;;2261520;61;1169;-81
2022/09/16 00:52:34;10437.00;0.03;18.71;0.00;0.00;0.62;;;;;19.90;1.00;;;;;;2261635;61;2053;-81
2022/09/16 00:55:05;0.00;0.00;0.62;0.00;0.00;0.62;;;;;19.40;1.00;;;;;;2261818;61;1113;-81
2022/09/16 00:57:34;15224.00;0.05;27.00;0.00;0.00;0.62;;;;;19.20;1.00;;;;;;2261873;61;1161;-81
2022/09/16 01:00:06;0.00;0.00;0.62;0.00;0.00;0.62;;;;;19.20;1.00;;;;;;2261731;61;1157;-81
2022/09/16 01:02:33;346309.00;1.15;597.52;41514.00;0.14;72.51;;;;;18.90;1.00;;;;;;2261886;61;1457;-81
2022/09/16 01:05:04;52227.00;0.17;91.04;0.00;0.00;0.62;;;;;18.90;1.00;;;;;;2262036;61;1149;-81
2022/09/16 01:07:38;0.00;0.00;0.62;0.00;0.00;0.62;;;;;18.90;1.00;;;;;;2262207;61;1124;-81
2022/09/16 01:10:06;60641.00;0.20;105.58;0.00;0.00;0.62;;;;;18.90;1.00;;;;;;2261821;61;1098;-81
2022/09/16 01:12:36;1850.00;0.01;3.83;0.00;0.00;0.62;;;;;19.10;1.00;;;;;;2261956;61;1936;-82
2022/09/16 01:15:06;0.00;0.00;0.62;0.00;0.00;0.62;;;;;19.30;1.30;;;;;;2260949;61;1148;-81
2022/09/16 01:18:05;0.00;0.00;0.62;0.00;0.00;0.62;;;;;19.30;1.00;;;;;;2260317;61;1070;-81
2022/09/16 01:21:08;75924.00;0.25;132.00;0.00;0.00;0.62;;;;;19.40;1.00;;;;;;2258520;61;1392;-82
2022/09/16 01:24:23;0.00;0.00;0.62;0.00;0.00;0.62;;;;;19.40;1.00;;;;;;2262000;61;1259;-81
2022/09/16 01:27:14;0.00;0.00;0.62;0.00;0.00;0.62;;;;;19.20;1.00;;;;;;2261846;61;1151;-81
2022/09/16 01:30:20;250377.00;0.83;432.60;0.00;0.00;0.62;;;;;19.30;1.00;;;;;;2261625;61;1301;-81
2022/09/16 01:33:03;27019.00;0.09;47.42;0.00;0.00;0.62;;;;;19.50;1.00;;;;;;2267241;61;1950;-83
2022/09/16 01:35:46;47236.00;0.16;82.41;0.00;0.00;0.62;;;;;19.70;1.00;;;;;;2261891;61;1085;-81
2022/09/16 01:38:29;0.00;0.00;0.62;0.00;0.00;0.62;;;;;19.80;1.00;;;;;;2261543;61;1121;-81
2022/09/16 01:41:06;158044.00;0.53;273.67;60103.00;0.20;104.65;;;;;19.60;1.00;;;;;;2261482;61;1417;-81
2022/09/16 01:43:45;179204.00;0.60;310.12;58074.00;0.19;101.15;;;;;19.70;1.00;;;;;;2261493;61;1163;-81
2022/09/16 01:46:21;0.00;0.00;0.62;0.00;0.00;0.62;;;;;19.70;1.00;;;;;;2261175;61;1182;-82
2022/09/16 01:48:56;216498.00;0.72;374.32;65519.00;0.22;114.02;;;;;19.50;1.00;;;;;;2261454;61;1059;-80
2022/09/16 01:51:30;162837.00;0.54;281.93;66298.00;0.22;115.36;;;;;19.30;1.00;;;;;;2261787;61;1939;-82
2022/09/16 01:54:06;173536.00;0.58;300.36;0.00;0.00;0.62;;;;;19.60;1.00;;;;;;2261472;61;1107;-81
2022/09/16 01:56:41;316255.00;1.05;545.86;75034.00;0.25;130.46;;;;;19.70;1.00;;;;;;2261187;61;1058;-82
2022/09/16 01:59:10;233157.00;0.78;402.98;66880.00;0.22;116.37;;;;;19.80;1.00;;;;;;2260950;61;1231;-81
2022/09/16 02:01:43;239250.00;0.80;413.46;59978.00;0.20;104.44;;;;;19.90;1.00;;;;;;2260795;61;1366;-81
2022/09/16 02:04:16;165481.00;0.55;286.48;59526.00;0.20;103.66;;;;;19.80;1.00;;;;;;2261217;61;1070;-81
2022/09/16 02:06:47;238422.00;0.79;412.04;68208.00;0.23;118.66;;;;;19.80;1.00;;;;;;2260992;61;1132;-81
2022/09/16 02:09:18;0.00;0.00;0.62;0.00;0.00;0.62;;;;;19.60;1.00;;;;;;2261695;61;1128;-81
2022/09/16 02:11:50;0.00;0.00;0.62;0.00;0.00;0.62;;;;;19.40;1.00;;;;;;2261356;61;1918;-81
2022/09/16 02:14:22;0.00;0.00;0.62;0.00;0.00;0.62;;;;;19.40;1.00;;;;;;2261634;61;1122;-80
2022/09/16 02:16:54;0.00;0.00;0.62;0.00;0.00;0.62;;;;;19.20;1.00;;;;;;2261633;61;1084;-81
2022/09/16 02:19:26;0.00;0.00;0.62;0.00;0.00;0.62;;;;;19.00;1.00;;;;;;2261744;61;1089;-81
2022/09/16 02:21:55;87697.00;0.29;152.33;0.00;0.00;0.62;;;;;18.80;1.00;;;;;;2262335;61;1398;-81
2022/09/16 02:24:24;0.00;0.00;0.62;0.00;0.00;0.62;;;;;18.60;1.00;;;;;;2262095;61;1078;-81
2022/09/16 02:26:55;94590.00;0.32;164.23;21469.00;0.07;37.81;;;;;18.70;1.20;;;;;;2261906;61;1180;-81
2022/09/16 02:29:26;0.00;0.00;0.62;0.00;0.00;0.62;;;;;19.00;1.40;;;;;;2262258;61;1139;-81
2022/09/16 02:31:58;41950.00;0.14;73.26;0.00;0.00;0.62;;;;;19.20;1.10;;;;;;2262024;61;1924;-81
2022/09/16 02:34:32;195933.00;0.65;338.92;67270.00;0.22;117.04;;;;;19.30;1.00;;;;;;2261844;61;1057;-81
2022/09/16 02:37:15;164645.00;0.55;285.04;66283.00;0.22;115.34;;;;;19.50;1.00;;;;;;2261945;61;1163;-81
2022/09/16 02:39:48;210797.00;0.70;364.51;68191.00;0.23;118.63;;;;;19.40;1.00;;;;;;2261769;61;1091;-81
2022/09/16 02:42:16;339097.00;1.13;585.12;107747.00;0.36;186.94;;;;;19.30;1.00;;;;;;2261689;61;1413;-80
2022/09/16 02:44:45;212253.00;0.71;367.01;69320.00;0.23;120.59;;;;;19.20;1.00;;;;;;2262268;61;1267;-81
2022/09/16 02:47:17;343942.00;1.15;593.45;109645.00;0.37;190.22;;;;;18.40;1.00;;;;;;2262153;61;1094;-82
2022/09/16 02:49:55;205549.00;0.69;355.47;68252.00;0.23;118.74;;;;;17.90;1.00;;;;;;2262144;61;1072;-82
2022/09/16 02:52:30;185155.00;0.62;320.37;75756.00;0.25;131.71;;;;;17.60;1.60;;;;;;2262256;61;1928;-82
2022/09/16 02:55:05;241537.00;0.81;417.39;71423.00;0.24;124.22;;;;;17.50;3.00;;;;;;2261822;61;1166;-82
2022/09/16 02:57:32;258971.00;0.86;447.38;68871.00;0.23;119.81;;;;;17.50;3.60;;;;;;2261308;61;1255;-80
2022/09/16 02:59:59;165351.00;0.55;286.26;69849.00;0.23;121.50;;;;;17.90;2.70;;;;;;2261199;61;1127;-80
2022/09/16 03:02:26;160537.00;0.54;277.96;86056.00;0.29;149.50;;;;;18.30;3.40;;;;;;2261935;61;1348;-80
2022/09/16 03:04:54;170996.00;0.57;295.98;66015.00;0.22;114.87;;;;;18.50;2.10;;;;;;2261998;61;1172;-81
2022/09/16 03:07:21;30093.00;0.10;52.74;0.00;0.00;0.62;;;;;18.50;1.00;;;;;;2262181;61;1102;-81
2022/09/16 03:09:50;0.00;0.00;0.62;0.00;0.00;0.62;;;;;18.30;1.00;;;;;;2262204;61;1106;-80
2022/09/16 03:12:35;113232.00;0.38;196.41;0.00;0.00;0.62;;;;;18.20;1.00;;;;;;2261874;61;1919;-81
2022/09/16 03:15:41;37219.00;0.12;65.08;0.00;0.00;0.62;;;;;18.20;1.00;;;;;;2262337;61;1068;-80
2022/09/16 03:18:45;167447.00;0.56;289.87;82807.00;0.28;143.89;;;;;17.90;1.10;;;;;;2261720;61;1189;-80
2022/09/16 03:21:21;507833.00;1.69;875.31;25196.00;0.08;44.27;;;;;18.10;2.70;;;;;;2252731;61;1345;-82
2022/09/16 03:23:57;134821.00;0.45;233.64;0.00;0.00;0.62;;;;;18.50;2.10;;;;;;2257838;61;1129;-81
2022/09/16 03:26:35;538299.00;1.79;927.79;77470.00;0.26;134.67;;;;;18.90;3.90;;;;;;2258184;61;1172;-81
2022/09/16 03:29:12;268778.00;0.90;464.24;31561.00;0.11;55.28;;;;;18.90;1.70;;;;;;2263030;61;1110;-81
2022/09/16 03:31:47;214156.00;0.71;370.29;0.00;0.00;0.62;;;;;19.00;1.50;;;;;;2260068;61;2853;-81
2022/09/16 03:34:21;0.00;0.00;0.62;0.00;0.00;0.62;;;;;18.90;1.10;;;;;;2262270;61;1111;-81
2022/09/16 03:36:54;0.00;0.00;0.62;0.00;0.00;0.62;;;;;19.10;2.00;;;;;;2261724;61;1120;-81
2022/09/16 03:39:22;0.00;0.00;0.62;0.00;0.00;0.62;;;;;19.30;1.60;;;;;;2261542;61;1046;-82
2022/09/16 03:41:49;116940.00;0.39;202.80;0.00;0.00;0.62;;;;;19.30;1.00;;;;;;2259504;61;1288;-82
2022/09/16 03:44:16;0.00;0.00;0.62;0.00;0.00;0.62;;;;;19.30;1.00;;;;;;2257862;61;1071;-81
2022/09/16 03:46:43;0.00;0.00;0.62;0.00;0.00;0.62;;;;;19.50;1.00;;;;;;2257253;61;1164;-81
2022/09/16 03:49:10;0.00;0.00;0.62;0.00;0.00;0.62;;;;;19.70;1.00;;;;;;2257239;61;1174;-81
2022/09/16 03:51:37;262016.00;0.87;452.62;18756.00;0.06;33.12;;;;;19.80;1.00;;;;;;2257312;61;1930;-81
2022/09/16 03:54:05;79100.00;0.26;137.48;0.00;0.00;0.62;;;;;19.80;1.00;;;;;;2256933;61;1107;-81
2022/09/16 03:56:32;101537.00;0.34;176.22;9339.00;0.03;16.80;;;;;19.60;1.00;;;;;;2260335;61;1044;-81
2022/09/16 03:58:59;0.00;0.00;0.62;0.00;0.00;0.62;;;;;19.60;1.00;;;;;;2260919;61;1132;-81
2022/09/16 04:01:26;0.00;0.00;0.62;0.00;0.00;0.62;;;;;19.50;1.00;;;;;;2261191;61;1375;-81
2022/09/16 04:03:52;23623.00;0.08;41.54;0.00;0.00;0.62;;;;;19.30;1.00;;;;;;2261925;61;1160;-81
2022/09/16 04:06:19;530632.00;1.77;914.58;11322.00;0.04;20.24;;;;;18.80;1.00;;;;;;2257907;61;1677;-81
2022/09/16 04:08:49;356044.00;1.19;614.25;0.00;0.00;0.62;;;;;18.70;1.00;;;;;;2257774;61;1160;-80
2022/09/16 04:11:17;510344.00;1.70;879.63;7484.00;0.02;13.59;;;;;18.60;1.00;;;;;;2257547;61;1280;-81
2022/09/16 04:13:44;506794.00;1.69;873.52;0.00;0.00;0.62;;;;;18.70;2.10;;;;;;2257617;61;2011;-81
2022/09/16 04:16:11;543295.00;1.81;936.40;30508.00;0.10;53.46;;;;;18.80;1.30;;;;;;2260607;61;1127;-81
2022/09/16 04:18:38;777539.00;2.59;1341.98;41585.00;0.14;72.63;;;;;18.90;1.50;;;;;;2261370;61;1213;-82
2022/09/16 04:21:05;569581.00;1.90;981.72;27279.00;0.09;47.87;;;;;19.20;1.30;;;;;;2261595;61;1374;-81
2022/09/16 04:23:32;499977.00;1.67;861.78;13467.00;0.04;23.96;;;;;19.30;1.50;;;;;;2261237;61;1316;-81
2022/09/16 04:26:01;387849.00;1.29;668.92;20504.00;0.07;36.14;;;;;19.40;1.00;;;;;;2259208;61;1122;-82
2022/09/16 04:28:30;685751.00;2.29;1182.54;63050.00;0.21;109.75;;;;;19.30;1.10;;;;;;2257190;61;1045;-82
2022/09/16 04:31:00;278402.00;0.93;480.79;0.00;0.00;0.62;;;;;19.30;1.30;;;;;;2257013;61;1354;-82
2022/09/16 04:33:28;194364.00;0.65;336.22;0.00;0.00;0.62;;;;;19.20;1.00;;;;;;2257168;61;2039;-82
2022/09/16 04:36:02;399897.00;1.33;689.63;0.00;0.00;0.62;;;;;19.20;1.90;;;;;;2259109;61;1060;-82
2022/09/16 04:38:29;219559.00;0.73;379.58;1168.00;0.00;2.64;;;;;19.30;1.20;;;;;;2265491;61;1167;-82
2022/09/16 04:41:00;411381.00;1.37;709.37;29072.00;0.10;50.98;;;;;19.50;1.00;;;;;;2263029;61;1295;-81
2022/09/16 04:43:28;271895.00;0.91;469.60;0.00;0.00;0.62;;;;;19.50;1.00;;;;;;2261144;61;1156;-81
2022/09/16 04:45:55;190107.00;0.63;328.89;0.00;0.00;0.62;;;;;19.40;1.00;;;;;;2260142;61;1270;-81
2022/09/16 04:48:22;156396.00;0.52;270.83;0.00;0.00;0.62;;;;;19.50;1.00;;;;;;2257120;61;1158;-82
2022/09/16 04:50:49;141544.00;0.47;245.23;0.00;0.00;0.62;;;;;19.50;1.00;;;;;;2257499;61;1367;-81
2022/09/16 04:53:16;171502.00;0.57;296.85;0.00;0.00;0.62;;;;;19.30;1.00;;;;;;2258305;61;1923;-81
2022/09/16 04:55:43;281964.00;0.94;486.91;0.00;0.00;0.62;;;;;19.10;1.00;;;;;;2258246;61;1102;-81
2022/09/16 04:58:10;209391.00;0.70;362.09;0.00;0.00;0.62;;;;;19.00;1.00;;;;;;2257943;61;1116;-81
2022/09/16 05:00:38;274884.00;0.92;474.74;13635.00;0.05;24.25;;;;;19.10;1.00;;;;;;2258172;61;1368;-82
2022/09/16 05:03:05;690243.00;2.30;1190.32;35623.00;0.12;62.31;;;;;19.40;1.70;;;;;;2257680;61;1179;-82
2022/09/16 05:05:32;651843.00;2.17;1123.82;48985.00;0.16;85.43;;;;;19.50;1.00;;;;;;2258163;61;1092;-83
2022/09/16 05:07:58;626324.00;2.09;1079.70;0.00;0.00;0.62;;;;;19.40;1.00;;;;;;2257559;61;1063;-81
2022/09/16 05:10:26;457720.00;1.53;789.06;47245.00;0.16;82.42;;;;;19.70;1.00;;;;;;2258026;61;1358;-81
2022/09/16 05:12:54;510844.00;1.70;880.50;27353.00;0.09;48.00;;;;;19.80;1.00;;;;;;2258025;61;1938;-82
2022/09/16 05:15:21;255707.00;0.85;441.77;0.00;0.00;0.62;;;;;20.00;1.00;;;;;;2257527;61;1132;-81
2022/09/16 05:17:49;380151.00;1.27;655.68;0.00;0.00;0.62;;;;;20.10;1.00;;;;;;2260565;61;1321;-82
2022/09/16 05:20:16;447788.00;1.49;771.98;5327.00;0.02;9.85;;;;;20.00;1.00;;;;;;2261531;61;1370;-81
2022/09/16 05:22:43;181721.00;0.61;314.45;0.00;0.00;0.62;;;;;20.20;1.00;;;;;;2261499;61;1194;-82
2022/09/16 05:25:10;145534.00;0.49;252.11;0.00;0.00;0.62;;;;;20.20;1.00;;;;;;2262048;61;1126;-82
2022/09/16 05:27:37;521611.00;1.74;899.04;36052.00;0.12;63.06;;;;;20.30;1.00;;;;;;2261853;61;1117;-81
2022/09/16 05:30:04;221960.00;0.74;383.72;0.00;0.00;0.62;;;;;20.20;1.00;;;;;;2262241;61;1133;-82
2022/09/16 05:32:31;497982.00;1.66;858.35;61104.00;0.20;106.39;;;;;20.10;1.00;;;;;;2261371;61;2026;-82
2022/09/16 05:35:00;122854.00;0.41;213.01;0.00;0.00;0.62;;;;;20.10;1.00;;;;;;2261639;61;1103;-81
2022/09/16 05:37:26;104913.00;0.35;182.05;0.00;0.00;0.62;;;;;20.10;1.00;;;;;;2261792;61;1088;-81
2022/09/16 05:39:54;228311.00;0.76;394.64;0.00;0.00;0.62;;;;;20.00;1.00;;;;;;2262170;61;1134;-81
2022/09/16 05:42:21;89427.00;0.30;155.32;0.00;0.00;0.62;;;;;19.90;1.00;;;;;;2261518;61;1314;-82
2022/09/16 05:44:47;176676.00;0.59;305.77;0.00;0.00;0.62;;;;;19.80;1.00;;;;;;2261657;61;1284;-82
2022/09/16 05:47:14;136208.00;0.45;236.03;0.00;0.00;0.62;;;;;19.90;1.00;;;;;;2261557;61;1131;-81
2022/09/16 05:49:41;279136.00;0.93;482.05;57962.00;0.19;100.95;;;;;19.80;1.00;;;;;;2267392;61;1182;-83
2022/09/16 05:52:09;162437.00;0.54;281.24;0.00;0.00;0.62;;;;;19.80;1.00;;;;;;2260471;61;2004;-83
2022/09/16 05:54:36;155176.00;0.52;268.73;0.00;0.00;0.62;;;;;19.90;1.00;;;;;;2258315;61;1171;-82
2022/09/16 05:57:04;199554.00;0.67;345.16;0.00;0.00;0.62;;;;;19.80;1.00;;;;;;2258537;61;1111;-82
2022/09/16 05:59:30;265280.00;0.88;458.23;0.00;0.00;0.62;;;;;19.70;1.00;;;;;;2259589;61;1142;-82
2022/09/16 06:01:57;414944.00;1.38;715.50;0.00;0.00;0.62;;;;;19.70;1.00;;;;;;2262365;61;1262;-82
2022/09/16 06:04:24;470818.00;1.57;811.60;4967.00;0.02;9.23;;;;;19.60;1.00;;;;;;2262393;61;1132;-82
2022/09/16 06:06:51;340834.00;1.14;588.11;0.00;0.00;0.62;;;;;19.50;1.00;;;;;;2262285;61;1560;-82
2022/09/16 06:09:21;132455.00;0.44;229.56;0.00;0.00;0.62;;;;;19.60;1.60;;;;;;2261720;61;1151;-81
2022/09/16 06:11:49;102741.00;0.34;178.30;0.00;0.00;0.62;;;;;19.50;1.00;;;;;;2262169;61;2043;-81
2022/09/16 06:14:17;284214.00;0.95;490.78;0.00;0.00;0.62;;;;;19.00;1.00;;;;;;2262544;61;2020;-80
2022/09/16 06:16:44;239631.00;0.80;414.12;0.00;0.00;0.62;;;;;18.20;2.30;;;;;;2262067;61;1218;-83
2022/09/16 06:19:13;214293.00;0.71;370.52;0.00;0.00;0.62;;;;;17.40;4.30;;;;;;2262137;61;1143;-83
2022/09/16 06:21:42;280967.00;0.94;485.20;0.00;0.00;0.62;;;;;16.90;6.90;;;;;;2261963;61;1296;-83
2022/09/16 06:24:10;139120.00;0.46;241.05;0.00;0.00;0.62;;;;;17.00;7.50;;;;;;2262079;61;1173;-83
2022/09/16 06:26:41;132460.00;0.44;229.57;13478.00;0.04;23.97;;;;;16.70;7.90;;;;;;2262025;61;1037;-83
2022/09/16 06:29:08;243824.00;0.81;421.33;0.00;0.00;0.62;;;;;16.50;9.00;;;;;;2262186;61;1088;-83
2022/09/16 06:31:36;417734.00;1.39;720.29;29825.00;0.10;52.28;;;;;16.40;9.80;;;;;;2262038;61;1239;-84
2022/09/16 06:34:05;263593.00;0.88;455.33;0.00;0.00;0.62;;;;;16.80;9.50;;;;;;2262011;61;1944;-83
2022/09/16 06:36:34;218243.00;0.73;377.32;47858.00;0.16;83.48;;;;;17.00;8.00;;;;;;2262067;61;1164;-81
2022/09/16 06:39:01;211601.00;0.71;365.89;8797.00;0.03;15.86;;;;;17.10;7.50;;;;;;2261793;61;1194;-81
2022/09/16 06:41:28;143897.00;0.48;249.29;0.00;0.00;0.62;;;;;17.00;7.20;;;;;;2263233;61;1359;-82
2022/09/16 06:43:56;127222.00;0.42;220.54;0.00;0.00;0.62;;;;;16.70;8.40;;;;;;2261976;61;1135;-82
2022/09/16 06:46:25;183681.00;0.61;317.83;0.00;0.00;0.62;;;;;16.30;9.80;;;;;;2262157;61;1139;-82
2022/09/16 06:48:55;276398.00;0.92;477.34;0.00;0.00;0.62;;;;;16.60;10.50;;;;;;2262190;61;1219;-83
2022/09/16 06:51:23;168585.00;0.56;291.83;0.00;0.00;0.62;;;;;17.20;9.90;;;;;;2262240;61;1363;-82
2022/09/16 06:53:52;316320.00;1.05;545.97;0.00;0.00;0.62;;;;;17.70;7.00;;;;;;2262702;61;2028;-83
2022/09/16 06:56:20;253453.00;0.84;437.89;0.00;0.00;0.62;;;;;17.60;5.80;;;;;;2264322;61;1129;-83
2022/09/16 06:58:50;134660.00;0.45;233.36;0.00;0.00;0.62;;;;;17.30;4.80;;;;;;2262657;61;1143;-84
2022/09/16 07:01:20;303904.00;1.01;524.63;0.00;0.00;0.62;;;;;16.90;4.80;;;;;;2264645;61;1370;-83
2022/09/16 07:03:49;133195.00;0.44;230.84;0.00;0.00;0.62;;;;;16.70;5.30;;;;;;2263079;61;1123;-84
2022/09/16 07:06:17;441862.00;1.47;761.79;0.00;0.00;0.62;;;;;16.70;6.70;;;;;;2263114;61;1219;-84
2022/09/16 07:08:45;312363.00;1.04;539.17;0.00;0.00;0.62;;;;;16.60;6.00;;;;;;2263494;61;1065;-84
2022/09/16 07:11:15;431947.00;1.44;744.73;0.00;0.00;0.62;;;;;16.20;6.90;;;;;;2263187;61;1284;-84
2022/09/16 07:13:43;458080.00;1.53;789.68;11908.00;0.04;21.25;;;;;16.10;7.20;;;;;;2263749;61;1999;-83
2022/09/16 07:16:12;628165.00;2.09;1082.88;97922.00;0.33;169.98;;;;;16.20;8.90;;;;;;2263753;61;1133;-84
2022/09/16 07:18:41;301695.00;1.01;520.83;0.00;0.00;0.62;;;;;15.90;8.00;;;;;;2263314;61;1063;-83
2022/09/16 07:21:10;449811.00;1.50;775.46;0.00;0.00;0.62;;;;;15.80;8.20;;;;;;2263636;61;1267;-84
2022/09/16 07:23:38;260118.00;0.87;449.35;7549.00;0.03;13.70;;;;;15.50;8.60;;;;;;2263717;61;1262;-81
2022/09/16 07:26:07;385843.00;1.29;665.47;0.00;0.00;0.62;;;;;15.20;8.30;;;;;;2263397;61;1160;-81
2022/09/16 07:28:35;128924.00;0.43;223.47;0.00;0.00;0.62;;;;;15.40;10.00;;;;;;2262919;61;1244;-83
2022/09/16 07:31:02;101688.00;0.34;176.49;0.00;0.00;0.62;;;;;15.70;8.50;;;;;;2263079;61;1374;-83
2022/09/16 07:33:30;203670.00;0.68;352.24;1629.00;0.01;3.44;;;;;15.80;7.20;;;;;;2263839;61;1959;-82
2022/09/16 07:36:04;280996.00;0.94;485.25;58105.00;0.19;101.20;;;;;15.60;7.50;;;;;;2263633;61;1139;-83
2022/09/16 07:38:31;598155.00;1.99;1031.03;65449.00;0.22;113.90;;;;;15.50;10.10;;;;;;2263230;61;1140;-82
2022/09/16 07:41:04;379918.00;1.27;655.28;0.00;0.00;0.62;;;;;15.90;10.20;;;;;;2263253;61;1359;-83
2022/09/16 07:43:31;151178.00;0.50;261.84;0.00;0.00;0.62;;;;;15.70;7.90;;;;;;2263011;61;1164;-83
2022/09/16 07:45:59;119289.00;0.40;206.86;0.00;0.00;0.62;;;;;15.70;8.30;;;;;;2267069;61;1203;-83
2022/09/16 07:48:26;180830.00;0.60;312.92;0.00;0.00;0.62;;;;;15.60;9.50;;;;;;2263760;61;1100;-83
2022/09/16 07:50:56;410284.00;1.37;707.49;73049.00;0.24;127.03;;;;;15.60;9.40;;;;;;2263341;61;1449;-83
2022/09/16 07:53:26;460270.00;1.53;793.45;126594.00;0.42;219.46;;;;;15.80;8.60;;;;;;2263488;61;1935;-82
2022/09/16 07:55:53;135759.00;0.45;235.26;0.00;0.00;0.62;;;;;15.60;8.40;;;;;;2262982;61;1200;-83
2022/09/16 07:58:20;117001.00;0.39;202.91;0.00;0.00;0.62;;;;;15.40;10.00;;;;;;2262875;61;1132;-84
2022/09/16 08:00:48;95453.00;0.32;165.72;0.00;0.00;0.62;;;;;15.70;9.30;;;;;;2263208;61;1288;-83
2022/09/16 08:03:16;118927.00;0.40;206.23;0.00;0.00;0.62;;;;;15.70;7.90;;;;;;2264781;61;1076;-84
2022/09/16 08:05:43;50540.00;0.17;88.12;0.00;0.00;0.62;;;;;15.80;8.40;;;;;;2263706;61;1235;-84
2022/09/16 08:08:10;230709.00;0.77;398.77;0.00;0.00;0.62;;;;;15.80;8.90;;;;;;2263510;61;1117;-83
2022/09/16 08:10:38;68094.00;0.23;118.47;0.00;0.00;0.62;;;;;15.80;9.70;;;;;;2263042;61;1345;-82
2022/09/16 08:13:06;442487.00;1.47;762.86;60555.00;0.20;105.44;;;;;15.90;8.20;;;;;;2263180;61;1943;-82
2022/09/16 08:15:34;269677.00;0.90;465.79;0.00;0.00;0.62;;;;;15.60;9.30;;;;;;2263379;61;1171;-83
2022/09/16 08:18:01;41018.00;0.14;71.65;0.00;0.00;0.62;;;;;15.20;9.30;;;;;;2263207;61;1727;-84
2022/09/16 08:20:27;47620.00;0.16;83.07;0.00;0.00;0.62;;;;;14.90;10.60;;;;;;2263288;61;1348;-83
2022/09/16 08:22:54;44146.00;0.15;77.06;0.00;0.00;0.62;;;;;14.80;11.50;;;;;;2263997;61;1163;-83
2022/09/16 08:25:21;0.00;0.00;0.62;0.00;0.00;0.62;;;;;14.80;12.90;;;;;;2264531;61;1124;-83
2022/09/16 08:27:49;18954.00;0.06;33.46;0.00;0.00;0.62;;;;;14.70;12.30;;;;;;2265105;61;1220;-82
2022/09/16 08:30:16;87544.00;0.29;152.07;19538.00;0.07;34.47;;;;;14.80;10.90;;;;;;2264475;61;1691;-82
2022/09/16 08:32:43;142822.00;0.48;247.44;0.00;0.00;0.62;;;;;14.60;12.00;;;;;;2264569;61;1234;-82
2022/09/16 08:35:10;119579.00;0.40;207.36;0.00;0.00;0.62;;;;;14.50;13.20;;;;;;2263505;61;1174;-83
2022/09/16 08:37:37;0.00;0.00;0.62;0.00;0.00;0.62;;;;;14.90;13.60;;;;;;2263552;61;1212;-83
2022/09/16 08:40:05;39404.00;0.13;68.86;0.00;0.00;0.62;;;;;15.40;12.80;;;;;;2263352;61;1149;-83
2022/09/16 08:42:42;431445.00;1.44;743.87;94576.00;0.32;164.21;;;;;15.70;9.70;;;;;;2263123;61;1356;-82
2022/09/16 08:45:22;292358.00;0.97;504.78;0.00;0.00;0.62;;;;;15.70;10.80;;;;;;2262450;61;1129;-82
2022/09/16 08:48:01;230640.00;0.77;398.65;10261.00;0.03;18.40;;;;;15.60;9.90;;;;;;2267338;61;1071;-83
2022/09/16 08:50:32;358711.00;1.20;618.83;0.00;0.00;0.62;;;;;15.50;9.70;;;;;;2262870;61;1485;-82
2022/09/16 08:53:03;449191.00;1.50;774.39;23757.00;0.08;41.78;;;;;15.70;9.90;;;;;;2262607;61;1997;-82
2022/09/16 08:55:35;520200.00;1.73;896.61;22350.00;0.07;39.34;;;;;15.50;8.20;;;;;;2263249;61;1228;-83
2022/09/16 08:58:07;317714.00;1.06;548.37;401.00;0.00;1.32;;;;;15.90;10.30;;;;;;2268462;61;1132;-83
2022/09/16 09:00:36;460952.00;1.54;794.62;0.00;0.00;0.62;;;;;16.60;6.00;;;;;;2263271;61;1451;-82
2022/09/16 09:03:19;751841.00;2.51;1297.26;71211.00;0.24;123.85;;;;;17.10;4.00;;;;;;2263656;61;1170;-83
2022/09/16 09:05:51;313992.00;1.05;541.97;0.00;0.00;0.62;;;;;17.40;2.10;;;;;;2263607;61;1175;-83
2022/09/16 09:08:33;469776.00;1.57;809.80;0.00;0.00;0.62;;;;;17.80;2.40;;;;;;2263865;61;1113;-83
2022/09/16 09:11:10;340286.00;1.13;587.17;11438.00;0.04;20.44;;;;;18.10;1.00;;;;;;2264266;61;1377;-83
2022/09/16 09:13:51;359433.00;1.20;620.07;148.00;0.00;0.88;;;;;18.00;1.00;;;;;;2263991;61;1939;-83
2022/09/16 09:16:30;273534.00;0.91;472.42;0.00;0.00;0.62;;;;;18.30;1.00;;;;;;2263921;61;1152;-84
2022/09/16 09:19:10;467704.00;1.56;806.24;0.00;0.00;0.62;;;;;18.80;1.00;;;;;;2263941;61;1056;-83
2022/09/16 09:21:45;430307.00;1.43;741.91;0.00;0.00;0.62;;;;;18.50;1.00;;;;;;2263903;61;1466;-83
2022/09/16 09:24:33;432259.00;1.44;745.27;0.00;0.00;0.62;;;;;18.40;1.00;;;;;;2263796;61;1637;-83
2022/09/16 09:27:12;152238.00;0.51;263.66;7259.00;0.02;13.20;;;;;18.30;1.00;;;;;;2263841;61;1135;-83
2022/09/16 09:30:08;372826.00;1.24;643.09;0.00;0.00;0.62;;;;;18.40;1.00;;;;;;2263805;61;1139;-83
2022/09/16 09:32:53;35238.00;0.12;61.65;0.00;0.00;0.62;;;;;18.20;1.00;;;;;;2263859;61;1576;-82
2022/09/16 09:35:54;62852.00;0.21;109.41;0.00;0.00;0.62;;;;;18.10;1.00;;;;;;2263752;61;2023;-83
2022/09/16 09:38:41;3775.00;0.01;7.16;0.00;0.00;0.62;;;;;18.20;1.00;;;;;;2263685;61;1127;-81
2022/09/16 09:41:14;121239.00;0.40;210.22;0.00;0.00;0.62;;;;;18.40;1.00;;;;;;2266746;61;1382;-83
2022/09/16 09:43:47;301627.00;1.01;520.72;76396.00;0.25;132.81;;;;;18.70;1.00;;;;;;2268540;61;1092;-84
2022/09/16 09:46:22;60659.00;0.20;105.62;0.00;0.00;0.62;;;;;19.00;1.00;;;;;;2263784;61;1155;-83
2022/09/16 09:48:57;0.00;0.00;0.62;0.00;0.00;0.62;;;;;19.00;1.00;;;;;;2263030;61;1215;-83
2022/09/16 09:51:31;0.00;0.00;0.62;0.00;0.00;0.62;;;;;19.10;1.00;;;;;;2262979;61;1482;-83
2022/09/16 09:54:05;0.00;0.00;0.62;0.00;0.00;0.62;;;;;19.20;1.00;;;;;;2262865;61;2002;-83
2022/09/16 09:56:35;46208.00;0.15;80.63;0.00;0.00;0.62;;;;;19.10;1.00;;;;;;2262836;61;1168;-83
2022/09/16 09:59:24;126081.00;0.42;218.57;0.00;0.00;0.62;;;;;19.20;1.00;;;;;;2263011;61;1077;-83
2022/09/16 10:01:54;0.00;0.00;0.62;0.00;0.00;0.62;;;;;19.00;1.00;;;;;;2262878;61;1370;-83
2022/09/16 10:04:23;0.00;0.00;0.62;0.00;0.00;0.62;;;;;19.00;1.00;;;;;;2262949;61;1131;-83
2022/09/16 10:06:54;0.00;0.00;0.62;0.00;0.00;0.62;;;;;19.20;1.00;;;;;;2263084;61;1215;-83
2022/09/16 10:09:22;148128.00;0.49;256.58;37898.00;0.13;66.25;;;;;19.30;1.00;;;;;;2267636;61;1247;-82
2022/09/16 10:11:53;27770.00;0.09;48.72;0.00;0.00;0.62;;;;;19.40;1.00;;;;;;2263854;61;1399;-83